Time;durP1;ratioP1;P1;durP2;ratioP2;P2;SDS_P1;SDS_P2;PMS_P1;PMS_P2;Temp;Humidity;BMP_temperature;BMP_pressure;BME280_temperature;BME280_humidity;BME280_pressure;Samples;Min_cycle;Max_cycle;Signal;HPM_P1;HPM_P2
2021/06/11 00:00:00;;;;;;;13.30;12.20;;;;;;;;;;5072093;28;20479;-72
2021/06/11 00:02:28;;;;;;;14.50;13.10;;;;;;;;;;5071521;28;20482;-64
2021/06/11 00:04:56;;;;;;;14.10;12.90;;;;;;;;;;5071731;28;20447;-68
2021/06/11 00:07:22;;;;;;;13.63;12.53;;;;;;;;;;5071101;28;20476;-69
2021/06/11 00:09:49;;;;;;;14.10;12.90;;;;;;;;;;5071853;28;20443;-66
2021/06/11 00:12:16;;;;;;;12.70;11.70;;;;;;;;;;5071243;28;20482;-70
2021/06/11 00:14:42;;;;;;;14.90;13.60;;;;;;;;;;5072096;28;20453;-65
2021/06/11 00:17:09;;;;;;;12.70;11.67;;;;;;;;;;5070684;28;20455;-67
2021/06/11 00:19:36;;;;;;;13.77;12.63;;;;;;;;;;5071521;28;20849;-68
2021/06/11 00:22:04;;;;;;;13.83;12.73;;;;;;;;;;5071752;28;20478;-65
2021/06/11 00:24:32;;;;;;;13.53;12.40;;;;;;;;;;5071854;28;20451;-69
2021/06/11 00:26:58;;;;;;;14.60;13.37;;;;;;;;;;5070697;28;20447;-66
2021/06/11 00:29:25;;;;;;;12.73;11.67;;;;;;;;;;5071490;28;20454;-65
2021/06/11 00:31:52;;;;;;;14.23;12.90;;;;;;;;;;5071391;28;20463;-65
2021/06/11 00:34:18;;;;;;;14.97;13.53;;;;;;;;;;5071814;28;20443;-64
2021/06/11 00:36:45;;;;;;;15.30;14.10;;;;;;;;;;5070890;28;20457;-68
2021/06/11 00:39:13;;;;;;;15.47;14.20;;;;;;;;;;5071310;28;20556;-69
2021/06/11 00:41:39;;;;;;;14.20;12.93;;;;;;;;;;5071231;28;21009;-65
2021/06/11 00:44:06;;;;;;;14.40;13.20;;;;;;;;;;5071643;28;20459;-69
2021/06/11 00:46:33;;;;;;;13.23;12.03;;;;;;;;;;5070659;28;20461;-66
2021/06/11 00:48:59;;;;;;;13.17;11.97;;;;;;;;;;5071672;28;20435;-65
2021/06/11 00:51:26;;;;;;;14.37;13.07;;;;;;;;;;5071175;28;20886;-69
2021/06/11 00:53:53;;;;;;;13.20;12.20;;;;;;;;;;5074796;28;20443;-66
2021/06/11 00:56:21;;;;;;;14.07;12.87;;;;;;;;;;5074645;28;20447;-65
2021/06/11 00:58:47;;;;;;;13.77;12.67;;;;;;;;;;5075154;28;20483;-70
2021/06/11 01:01:14;;;;;;;14.70;13.50;;;;;;;;;;5075214;28;20965;-65
2021/06/11 01:03:41;;;;;;;15.47;14.10;;;;;;;;;;5075624;28;20443;-71
2021/06/11 01:06:07;;;;;;;14.00;12.80;;;;;;;;;;5074197;28;20449;-65
2021/06/11 01:08:35;;;;;;;14.47;13.20;;;;;;;;;;5075418;28;20457;-69
2021/06/11 01:11:02;;;;;;;13.57;12.50;;;;;;;;;;5075387;28;20477;-68
2021/06/11 01:13:30;;;;;;;12.03;11.23;;;;;;;;;;5075040;28;20500;-66
2021/06/11 01:15:57;;;;;;;13.97;12.80;;;;;;;;;;5074605;28;20454;-69
2021/06/11 01:18:24;;;;;;;14.93;13.70;;;;;;;;;;5075205;28;20446;-67
2021/06/11 01:20:51;;;;;;;15.03;13.80;;;;;;;;;;5074910;28;20443;-65
2021/06/11 01:23:41;;;;;;;13.13;12.03;;;;;;;;;;5074877;28;20458;-70
2021/06/11 01:26:18;;;;;;;13.90;12.87;;;;;;;;;;5074018;28;20700;-70
2021/06/11 01:28:45;;;;;;;14.30;13.20;;;;;;;;;;5075091;28;21013;-69
2021/06/11 01:31:12;;;;;;;13.17;12.17;;;;;;;;;;5074986;28;20818;-66
2021/06/11 01:33:39;;;;;;;15.43;14.23;;;;;;;;;;5075277;28;20442;-69
2021/06/11 01:36:08;;;;;;;14.97;13.77;;;;;;;;;;5074133;28;20450;-69
2021/06/11 01:38:38;;;;;;;15.40;14.20;;;;;;;;;;5072983;28;20486;-69
2021/06/11 01:41:07;;;;;;;16.53;15.13;;;;;;;;;;5075215;28;20473;-68
2021/06/11 01:43:35;;;;;;;15.83;14.53;;;;;;;;;;5074503;28;20443;-68
2021/06/11 01:46:01;;;;;;;16.87;15.40;;;;;;;;;;5074380;28;20465;-66
2021/06/11 01:48:29;;;;;;;17.17;15.77;;;;;;;;;;5074480;28;20442;-66
2021/06/11 01:50:57;;;;;;;15.80;14.50;;;;;;;;;;5074358;28;20476;-72
2021/06/11 01:53:24;;;;;;;15.23;14.03;;;;;;;;;;5074942;28;20443;-67
2021/06/11 01:55:52;;;;;;;17.23;15.83;;;;;;;;;;5073638;28;20454;-69
2021/06/11 01:58:19;;;;;;;16.70;15.40;;;;;;;;;;5074639;28;20496;-68
2021/06/11 02:00:47;;;;;;;15.90;14.60;;;;;;;;;;5073962;28;20446;-69
2021/06/11 02:03:16;;;;;;;17.30;15.90;;;;;;;;;;5074338;28;20454;-69
2021/06/11 02:05:43;;;;;;;16.47;15.17;;;;;;;;;;5072402;28;20458;-71
2021/06/11 02:08:11;;;;;;;16.93;15.53;;;;;;;;;;5074010;28;20995;-65
2021/06/11 02:10:38;;;;;;;16.43;15.13;;;;;;;;;;5074406;28;20443;-66
2021/06/11 02:13:06;;;;;;;16.90;15.60;;;;;;;;;;5073572;28;20459;-68
2021/06/11 02:15:33;;;;;;;17.40;16.00;;;;;;;;;;5073724;28;20446;-69
2021/06/11 02:18:01;;;;;;;17.50;16.10;;;;;;;;;;5073900;28;20811;-66
2021/06/11 02:20:27;;;;;;;17.77;16.27;;;;;;;;;;5074116;28;20490;-71
2021/06/11 02:22:54;;;;;;;18.50;17.00;;;;;;;;;;5073780;28;20475;-73
2021/06/11 02:25:22;;;;;;;17.37;15.97;;;;;;;;;;5073401;28;20447;-69
2021/06/11 02:27:49;;;;;;;18.30;16.80;;;;;;;;;;5073990;28;20451;-66
2021/06/11 02:30:17;;;;;;;17.30;16.00;;;;;;;;;;5073594;28;20976;-67
2021/06/11 02:32:44;;;;;;;16.87;15.57;;;;;;;;;;5073152;28;20505;-69
2021/06/11 02:35:13;;;;;;;19.03;17.40;;;;;;;;;;5073639;28;20446;-65
2021/06/11 02:37:40;;;;;;;19.40;17.67;;;;;;;;;;5073440;28;20453;-71
2021/06/11 02:40:08;;;;;;;19.17;17.50;;;;;;;;;;5073397;28;20494;-68
2021/06/11 02:42:35;;;;;;;18.10;16.60;;;;;;;;;;5073554;28;20470;-66
2021/06/11 02:45:02;;;;;;;19.33;17.83;;;;;;;;;;5073492;28;20442;-73
2021/06/11 02:47:31;;;;;;;20.20;18.70;;;;;;;;;;5072712;28;20462;-65
2021/06/11 02:50:00;;;;;;;19.30;17.70;;;;;;;;;;5073399;28;20477;-68
2021/06/11 02:52:29;;;;;;;18.87;17.23;;;;;;;;;;5073141;28;20470;-70
2021/06/11 02:54:56;;;;;;;18.50;17.10;;;;;;;;;;5073161;28;20954;-70
2021/06/11 02:57:26;;;;;;;20.50;18.87;;;;;;;;;;5072741;28;20503;-66
2021/06/11 02:59:55;;;;;;;21.30;19.60;;;;;;;;;;5073130;28;20481;-72
2021/06/11 03:02:24;;;;;;;20.37;18.57;;;;;;;;;;5073216;28;20479;-66
2021/06/11 03:04:53;;;;;;;18.97;17.40;;;;;;;;;;5072928;28;20930;-65
2021/06/11 03:07:24;;;;;;;21.80;20.00;;;;;;;;;;5071991;28;20500;-67
2021/06/11 03:09:55;;;;;;;19.63;18.03;;;;;;;;;;5072696;28;20439;-68
2021/06/11 03:12:22;;;;;;;21.67;19.67;;;;;;;;;;5072603;28;20502;-66
2021/06/11 03:14:50;;;;;;;21.57;19.77;;;;;;;;;;5072869;28;20445;-68
2021/06/11 03:17:17;;;;;;;22.13;20.23;;;;;;;;;;5072316;28;20870;-67
2021/06/11 03:19:47;;;;;;;22.70;20.87;;;;;;;;;;5072411;28;20880;-69
2021/06/11 03:22:16;;;;;;;21.80;19.90;;;;;;;;;;5072766;28;20985;-68
2021/06/11 03:24:43;;;;;;;22.70;20.90;;;;;;;;;;5072387;28;20457;-68
2021/06/11 03:27:14;;;;;;;24.37;22.37;;;;;;;;;;5071453;28;20507;-72
2021/06/11 03:29:43;;;;;;;21.77;19.97;;;;;;;;;;5072603;28;20451;-72
2021/06/11 03:32:13;;;;;;;22.77;20.90;;;;;;;;;;5072861;28;20462;-74
2021/06/11 03:34:42;;;;;;;23.57;21.70;;;;;;;;;;5073153;28;20443;-73
2021/06/11 03:37:11;;;;;;;23.97;21.97;;;;;;;;;;5071756;28;20636;-73
2021/06/11 03:39:41;;;;;;;22.70;20.90;;;;;;;;;;5072760;28;20475;-73
2021/06/11 03:42:10;;;;;;;22.73;20.80;;;;;;;;;;5072796;28;20462;-70
2021/06/11 03:44:42;;;;;;;23.13;21.03;;;;;;;;;;5072598;28;20447;-70
2021/06/11 03:47:10;;;;;;;24.10;21.97;;;;;;;;;;5071912;28;20447;-67
2021/06/11 03:49:37;;;;;;;23.77;21.70;;;;;;;;;;5072588;28;20447;-68
2021/06/11 03:52:05;;;;;;;26.27;24.03;;;;;;;;;;5072543;28;20528;-69
2021/06/11 03:54:32;;;;;;;26.23;23.90;;;;;;;;;;5072458;28;20451;-65
2021/06/11 03:56:59;;;;;;;26.73;24.43;;;;;;;;;;5071695;28;20443;-68
2021/06/11 03:59:25;;;;;;;24.27;22.27;;;;;;;;;;5072094;28;20483;-67
2021/06/11 04:01:54;;;;;;;25.07;22.97;;;;;;;;;;5073180;28;20470;-70
2021/06/11 04:04:21;;;;;;;27.00;24.90;;;;;;;;;;5073421;28;20454;-71
2021/06/11 04:06:51;;;;;;;28.57;26.23;;;;;;;;;;5077132;28;20443;-71
2021/06/11 04:09:19;;;;;;;29.27;27.07;;;;;;;;;;5076239;28;20454;-74
2021/06/11 04:11:47;;;;;;;33.37;30.67;;;;;;;;;;5096819;22;20593;-69
2021/06/11 04:14:16;;;;;;;32.07;29.57;;;;;;;;;;5066799;28;20488;-68
2021/06/11 04:16:44;;;;;;;31.33;28.73;;;;;;;;;;5082141;28;20434;-68
2021/06/11 04:19:16;;;;;;;33.57;30.87;;;;;;;;;;5091176;28;21000;-69
2021/06/11 04:21:44;;;;;;;34.33;31.67;;;;;;;;;;5091223;28;20473;-68
2021/06/11 04:24:12;;;;;;;31.60;29.07;;;;;;;;;;5091809;28;20477;-68
2021/06/11 04:26:40;;;;;;;34.83;32.13;;;;;;;;;;5090496;28;20441;-69
2021/06/11 04:29:08;;;;;;;34.60;31.80;;;;;;;;;;5091655;28;20807;-68
2021/06/11 04:31:35;;;;;;;34.70;32.00;;;;;;;;;;5090960;28;20465;-68
2021/06/11 04:34:02;;;;;;;35.87;33.07;;;;;;;;;;5091264;28;20951;-68
2021/06/11 04:36:30;;;;;;;36.27;33.27;;;;;;;;;;5090717;28;20442;-68
2021/06/11 04:38:57;;;;;;;35.07;32.30;;;;;;;;;;5091602;28;20558;-68
2021/06/11 04:41:24;;;;;;;35.53;32.73;;;;;;;;;;5091305;28;21084;-69
2021/06/11 04:43:51;;;;;;;35.93;33.23;;;;;;;;;;5091001;28;20506;-68
2021/06/11 04:46:18;;;;;;;36.23;33.20;;;;;;;;;;5090874;28;20449;-68
2021/06/11 04:48:44;;;;;;;35.70;32.77;;;;;;;;;;5091494;28;20503;-67
2021/06/11 04:51:11;;;;;;;36.33;33.40;;;;;;;;;;5091464;28;20881;-68
2021/06/11 04:53:39;;;;;;;37.07;33.87;;;;;;;;;;5091368;28;20449;-68
2021/06/11 04:56:08;;;;;;;36.50;33.63;;;;;;;;;;5090736;28;20472;-69
2021/06/11 04:58:34;;;;;;;35.27;32.60;;;;;;;;;;5090903;28;20454;-68
2021/06/11 05:01:01;;;;;;;35.90;33.17;;;;;;;;;;5091255;28;20488;-68
2021/06/11 05:03:28;;;;;;;38.10;35.10;;;;;;;;;;5091129;28;20954;-68
2021/06/11 05:05:54;;;;;;;36.50;33.60;;;;;;;;;;5090500;28;20446;-69
2021/06/11 05:08:21;;;;;;;38.03;34.97;;;;;;;;;;5091081;28;20933;-67
2021/06/11 05:10:50;;;;;;;35.77;32.63;;;;;;;;;;5091324;28;20491;-68
2021/06/11 05:13:16;;;;;;;34.57;31.87;;;;;;;;;;5090861;28;20517;-68
2021/06/11 05:15:43;;;;;;;35.90;33.20;;;;;;;;;;5090389;28;20449;-66
2021/06/11 05:18:09;;;;;;;32.07;29.57;;;;;;;;;;5091363;28;20452;-69
2021/06/11 05:20:37;;;;;;;32.03;29.43;;;;;;;;;;5091064;28;20482;-68
2021/06/11 05:23:04;;;;;;;32.47;29.87;;;;;;;;;;5091322;28;20462;-68
2021/06/11 05:25:31;;;;;;;30.63;28.23;;;;;;;;;;5090398;28;20446;-68
2021/06/11 05:27:59;;;;;;;29.50;27.30;;;;;;;;;;5091217;28;20446;-67
2021/06/11 05:30:27;;;;;;;28.53;26.33;;;;;;;;;;5090875;28;21000;-66
2021/06/11 05:32:53;;;;;;;26.30;24.30;;;;;;;;;;5091350;28;20476;-67
2021/06/11 05:35:20;;;;;;;23.40;21.50;;;;;;;;;;5090172;28;20498;-69
2021/06/11 05:37:47;;;;;;;23.73;21.93;;;;;;;;;;5090848;28;20471;-69
2021/06/11 05:40:14;;;;;;;20.17;18.63;;;;;;;;;;5092861;28;20643;-68
2021/06/11 05:42:40;;;;;;;21.40;19.70;;;;;;;;;;5094687;28;20473;-68
2021/06/11 05:45:09;;;;;;;19.30;17.77;;;;;;;;;;5094740;28;20454;-68
2021/06/11 05:47:37;;;;;;;21.40;19.50;;;;;;;;;;5094077;28;20456;-67
2021/06/11 05:50:05;;;;;;;18.80;17.27;;;;;;;;;;5094163;28;20944;-68
2021/06/11 05:52:31;;;;;;;18.90;17.40;;;;;;;;;;5094119;28;20984;-69
2021/06/11 05:54:58;;;;;;;15.90;14.50;;;;;;;;;;5094653;28;20446;-67
2021/06/11 05:57:25;;;;;;;14.90;13.60;;;;;;;;;;5093843;28;20446;-68
2021/06/11 05:59:53;;;;;;;16.43;15.13;;;;;;;;;;5094081;28;20477;-68
2021/06/11 06:02:21;;;;;;;15.37;14.00;;;;;;;;;;5094303;28;20482;-67
2021/06/11 06:04:48;;;;;;;13.70;12.53;;;;;;;;;;5094337;28;20442;-67
2021/06/11 06:07:15;;;;;;;13.97;12.70;;;;;;;;;;5093515;28;20454;-68
2021/06/11 06:09:41;;;;;;;14.20;12.93;;;;;;;;;;5094345;28;20445;-69
2021/06/11 06:12:09;;;;;;;13.43;12.30;;;;;;;;;;5093601;28;20478;-68
2021/06/11 06:14:35;;;;;;;12.40;11.40;;;;;;;;;;5093860;28;20450;-67
2021/06/11 06:17:02;;;;;;;15.90;14.53;;;;;;;;;;5093054;28;20453;-67
2021/06/11 06:19:30;;;;;;;19.17;17.30;;;;;;;;;;5094048;28;20477;-68
2021/06/11 06:21:56;;;;;;;25.73;21.80;;;;;;;;;;5093598;28;20466;-68
2021/06/11 06:24:23;;;;;;;15.23;13.93;;;;;;;;;;5093747;28;20465;-69
2021/06/11 06:26:50;;;;;;;14.07;12.77;;;;;;;;;;5093197;28;20446;-69
2021/06/11 06:29:16;;;;;;;13.20;12.00;;;;;;;;;;5093900;28;20453;-68
2021/06/11 06:31:43;;;;;;;12.90;11.80;;;;;;;;;;5093317;28;21002;-69
2021/06/11 06:34:10;;;;;;;13.13;12.03;;;;;;;;;;5093360;28;20450;-68
2021/06/11 06:36:38;;;;;;;12.17;11.17;;;;;;;;;;5092579;28;20948;-68
2021/06/11 06:39:07;;;;;;;11.20;10.07;;;;;;;;;;5094015;28;20453;-69
2021/06/11 06:41:34;;;;;;;11.50;10.60;;;;;;;;;;5093315;28;20506;-69
2021/06/11 06:44:00;;;;;;;11.30;10.40;;;;;;;;;;5093205;28;20442;-69
2021/06/11 06:46:27;;;;;;;10.63;9.63;;;;;;;;;;5092687;28;20532;-68
2021/06/11 06:48:54;;;;;;;9.60;8.80;;;;;;;;;;5092868;28;20936;-69
2021/06/11 06:51:23;;;;;;;10.17;9.27;;;;;;;;;;5092759;28;20474;-66
2021/06/11 06:53:51;;;;;;;9.50;8.60;;;;;;;;;;5092969;28;20889;-68
2021/06/11 06:56:18;;;;;;;8.87;7.97;;;;;;;;;;5092519;28;20445;-68
2021/06/11 06:58:45;;;;;;;10.07;9.10;;;;;;;;;;5092716;28;20976;-69
2021/06/11 07:01:11;;;;;;;10.43;8.90;;;;;;;;;;5092862;28;20485;-68
2021/06/11 07:03:38;;;;;;;10.80;9.80;;;;;;;;;;5092925;28;20442;-69
2021/06/11 07:06:05;;;;;;;11.63;10.73;;;;;;;;;;5092456;28;20456;-65
2021/06/11 07:08:32;;;;;;;9.80;8.87;;;;;;;;;;5092905;28;20945;-67
2021/06/11 07:11:00;;;;;;;7.53;6.93;;;;;;;;;;5092989;28;20454;-68
2021/06/11 07:13:31;;;;;;;8.37;7.60;;;;;;;;;;5092854;28;20529;-68
2021/06/11 07:15:57;;;;;;;8.40;5.93;;;;;;;;;;5091697;28;20486;-68
2021/06/11 07:18:24;;;;;;;5.50;4.87;;;;;;;;;;5092763;28;20779;-68
2021/06/11 07:20:51;;;;;;;5.00;4.60;;;;;;;;;;5092593;28;20512;-68
2021/06/11 07:23:17;;;;;;;7.77;5.43;;;;;;;;;;5092593;28;20473;-69
2021/06/11 07:25:44;;;;;;;4.67;4.27;;;;;;;;;;5092038;28;20442;-67
2021/06/11 07:28:12;;;;;;;4.60;4.20;;;;;;;;;;5092297;28;20465;-68
2021/06/11 07:30:39;;;;;;;4.30;3.90;;;;;;;;;;5092167;28;20454;-68
2021/06/11 07:33:05;;;;;;;4.10;3.80;;;;;;;;;;5092404;28;20462;-68
2021/06/11 07:35:32;;;;;;;4.60;4.20;;;;;;;;;;5091637;28;20948;-68
2021/06/11 07:37:58;;;;;;;6.20;5.70;;;;;;;;;;5092221;28;20449;-68
2021/06/11 07:40:25;;;;;;;5.00;4.60;;;;;;;;;;5092164;28;20481;-69
2021/06/11 07:42:53;;;;;;;8.13;7.37;;;;;;;;;;5092669;28;20522;-68
2021/06/11 07:45:20;;;;;;;11.80;10.70;;;;;;;;;;5091713;28;20458;-68
2021/06/11 07:47:47;;;;;;;13.63;12.53;;;;;;;;;;5091897;28;20457;-69
2021/06/11 07:50:14;;;;;;;6.67;5.97;;;;;;;;;;5092009;28;20449;-68
2021/06/11 07:52:40;;;;;;;5.70;5.20;;;;;;;;;;5092151;28;20465;-68
2021/06/11 07:55:08;;;;;;;5.10;4.13;;;;;;;;;;5091713;28;20506;-68
2021/06/11 07:57:35;;;;;;;5.03;4.20;;;;;;;;;;5091315;28;20453;-68
2021/06/11 08:00:01;;;;;;;3.80;3.40;;;;;;;;;;5091843;28;20482;-69
2021/06/11 08:02:29;;;;;;;3.50;3.20;;;;;;;;;;5091076;28;21038;-68
2021/06/11 08:04:57;;;;;;;5.17;3.30;;;;;;;;;;5091807;28;20452;-69
2021/06/11 08:07:29;;;;;;;4.03;2.80;;;;;;;;;;5091300;28;20511;-69
2021/06/11 08:09:56;;;;;;;4.70;2.97;;;;;;;;;;5091679;28;21029;-69
2021/06/11 08:12:22;;;;;;;2.80;2.60;;;;;;;;;;5091311;28;20480;-68
2021/06/11 08:14:49;;;;;;;3.50;3.20;;;;;;;;;;5092057;28;20442;-67
2021/06/11 08:17:16;;;;;;;8.30;3.47;;;;;;;;;;5091031;28;20454;-68
2021/06/11 08:19:44;;;;;;;4.97;2.90;;;;;;;;;;5091494;28;20500;-68
2021/06/11 08:22:10;;;;;;;4.37;2.60;;;;;;;;;;5091380;28;20984;-69
2021/06/11 08:24:37;;;;;;;2.53;2.20;;;;;;;;;;5091553;28;20446;-68
2021/06/11 08:27:04;;;;;;;2.20;2.00;;;;;;;;;;5090353;28;20498;-68
2021/06/11 08:29:30;;;;;;;6.60;2.20;;;;;;;;;;5091366;28;20903;-69
2021/06/11 08:31:57;;;;;;;2.60;2.27;;;;;;;;;;5091513;28;20469;-68
2021/06/11 08:34:24;;;;;;;2.33;2.13;;;;;;;;;;5091821;28;20450;-67
2021/06/11 08:36:51;;;;;;;2.53;2.33;;;;;;;;;;5091212;28;20446;-68
2021/06/11 08:39:18;;;;;;;3.37;2.80;;;;;;;;;;5091651;28;20442;-68
2021/06/11 08:41:45;;;;;;;3.27;2.97;;;;;;;;;;5091560;28;20831;-66
2021/06/11 08:44:12;;;;;;;3.00;2.40;;;;;;;;;;5091164;28;20453;-66
2021/06/11 08:46:39;;;;;;;3.57;2.70;;;;;;;;;;5090620;28;20805;-66
2021/06/11 08:49:06;;;;;;;2.73;2.50;;;;;;;;;;5091420;28;20454;-66
2021/06/11 08:51:32;;;;;;;2.70;2.50;;;;;;;;;;5091173;28;20466;-67
2021/06/11 08:54:00;;;;;;;3.37;3.07;;;;;;;;;;5091148;28;20975;-66
2021/06/11 08:56:27;;;;;;;3.70;2.70;;;;;;;;;;5090786;28;20444;-66
2021/06/11 08:58:53;;;;;;;3.90;3.50;;;;;;;;;;5091309;28;20445;-67
2021/06/11 09:01:20;;;;;;;4.10;3.27;;;;;;;;;;5091094;28;20489;-68
2021/06/11 09:03:48;;;;;;;4.17;2.73;;;;;;;;;;5091228;28;20453;-66
2021/06/11 09:06:15;;;;;;;3.90;2.67;;;;;;;;;;5090205;28;20809;-67
2021/06/11 09:08:42;;;;;;;2.60;2.20;;;;;;;;;;5090984;28;20459;-66
2021/06/11 09:11:11;;;;;;;4.13;2.87;;;;;;;;;;5090971;28;20467;-66
2021/06/11 09:13:40;;;;;;;4.63;2.97;;;;;;;;;;5092539;28;20530;-67
2021/06/11 09:16:08;;;;;;;4.07;3.60;;;;;;;;;;5094113;28;20445;-67
2021/06/11 09:18:42;;;;;;;5.53;3.70;;;;;;;;;;5095242;28;20450;-67
2021/06/11 09:21:24;;;;;;;4.40;4.00;;;;;;;;;;5094891;28;20488;-66
2021/06/11 09:24:08;;;;;;;3.80;3.50;;;;;;;;;;5094869;28;20955;-69
2021/06/11 09:26:36;;;;;;;4.60;3.30;;;;;;;;;;5094457;28;20525;-67
2021/06/11 09:29:19;;;;;;;4.87;4.20;;;;;;;;;;5094966;28;20801;-67
2021/06/11 09:31:46;;;;;;;4.97;4.13;;;;;;;;;;5094797;28;20503;-66
2021/06/11 09:34:22;;;;;;;5.27;4.80;;;;;;;;;;5094502;28;20819;-66
2021/06/11 09:36:58;;;;;;;4.10;3.80;;;;;;;;;;5094086;28;20441;-66
2021/06/11 09:39:25;;;;;;;4.30;3.83;;;;;;;;;;5094604;28;20446;-68
2021/06/11 09:42:06;;;;;;;4.53;3.70;;;;;;;;;;5094158;28;21048;-66
2021/06/11 09:44:32;;;;;;;5.20;4.70;;;;;;;;;;5094682;28;20495;-66
2021/06/11 09:46:59;;;;;;;5.73;4.10;;;;;;;;;;5093670;28;20438;-68
2021/06/11 09:49:28;;;;;;;4.17;3.80;;;;;;;;;;5094652;28;20452;-67
2021/06/11 09:52:05;;;;;;;4.30;3.37;;;;;;;;;;5093855;28;20466;-67
2021/06/11 09:54:31;;;;;;;3.33;3.03;;;;;;;;;;5094609;28;20450;-67
2021/06/11 09:56:58;;;;;;;3.10;2.90;;;;;;;;;;5093360;28;21021;-66
2021/06/11 09:59:44;;;;;;;4.10;3.00;;;;;;;;;;5094366;28;20499;-67
2021/06/11 10:02:11;;;;;;;3.60;3.10;;;;;;;;;;5093735;28;20473;-67
2021/06/11 10:04:38;;;;;;;5.30;3.60;;;;;;;;;;5094048;28;20454;-68
2021/06/11 10:07:05;;;;;;;3.87;3.20;;;;;;;;;;5093426;28;20449;-66
2021/06/11 10:09:32;;;;;;;3.23;2.93;;;;;;;;;;5093966;28;20454;-67
2021/06/11 10:11:59;;;;;;;4.70;3.33;;;;;;;;;;5117978;22;20477;-63
2021/06/11 10:14:25;;;;;;;3.63;3.33;;;;;;;;;;5057836;28;20528;-69
2021/06/11 10:16:53;;;;;;;4.10;3.70;;;;;;;;;;5081279;28;20443;-68
2021/06/11 10:19:21;;;;;;;4.40;3.40;;;;;;;;;;5073535;28;20500;-67
2021/06/11 10:21:47;;;;;;;4.10;3.60;;;;;;;;;;5074208;28;20446;-69
2021/06/11 10:24:15;;;;;;;4.70;4.30;;;;;;;;;;5073353;28;21020;-69
2021/06/11 10:26:42;;;;;;;4.27;3.90;;;;;;;;;;5071917;28;21005;-69
2021/06/11 10:29:08;;;;;;;3.40;3.20;;;;;;;;;;5073469;28;20457;-67
2021/06/11 10:31:37;;;;;;;4.33;3.97;;;;;;;;;;5073625;28;20487;-69
2021/06/11 10:34:05;;;;;;;4.80;3.80;;;;;;;;;;5073387;28;20470;-68
2021/06/11 10:36:35;;;;;;;3.87;3.57;;;;;;;;;;5072544;28;20495;-69
2021/06/11 10:39:22;;;;;;;4.60;2.70;;;;;;;;;;5073672;28;20441;-68
2021/06/11 10:42:11;;;;;;;4.13;3.77;;;;;;;;;;5073469;28;20541;-66
2021/06/11 10:44:39;;;;;;;3.50;3.20;;;;;;;;;;5071713;28;20463;-69
2021/06/11 10:47:27;;;;;;;3.20;2.90;;;;;;;;;;5072612;28;20492;-69
2021/06/11 10:50:14;;;;;;;3.63;3.33;;;;;;;;;;5073163;28;20427;-69
2021/06/11 10:52:43;;;;;;;3.47;3.13;;;;;;;;;;5072772;28;20945;-69
2021/06/11 10:55:45;;;;;;;4.60;4.20;;;;;;;;;;5073084;28;20457;-66
2021/06/11 10:58:21;;;;;;;4.30;3.90;;;;;;;;;;5050622;28;20435;-68
2021/06/11 11:00:48;;;;;;;5.17;4.00;;;;;;;;;;5069961;28;20524;-69
2021/06/11 11:03:25;;;;;;;4.60;4.23;;;;;;;;;;5072873;28;20471;-69
2021/06/11 11:05:53;;;;;;;4.10;3.80;;;;;;;;;;5072204;28;20430;-68
2021/06/11 11:08:20;;;;;;;3.43;3.00;;;;;;;;;;5072704;28;20446;-69
2021/06/11 11:10:47;;;;;;;4.37;3.20;;;;;;;;;;5072901;28;20588;-69
2021/06/11 11:13:14;;;;;;;4.27;3.60;;;;;;;;;;5072271;28;20578;-68
2021/06/11 11:15:42;;;;;;;4.43;3.70;;;;;;;;;;5072206;28;20504;-69
2021/06/11 11:18:10;;;;;;;3.80;3.50;;;;;;;;;;5072551;28;20856;-69
2021/06/11 11:20:38;;;;;;;4.67;4.17;;;;;;;;;;5072533;28;20478;-69
2021/06/11 11:23:06;;;;;;;5.60;3.53;;;;;;;;;;5072293;28;20474;-69
2021/06/11 11:25:33;;;;;;;5.47;4.10;;;;;;;;;;5072145;28;20446;-69
2021/06/11 11:28:00;;;;;;;3.30;3.07;;;;;;;;;;5072024;28;20946;-68
2021/06/11 11:30:29;;;;;;;5.73;4.00;;;;;;;;;;5072547;28;20492;-69
2021/06/11 11:32:56;;;;;;;3.60;3.07;;;;;;;;;;5072374;28;20474;-66
2021/06/11 11:35:22;;;;;;;3.77;3.47;;;;;;;;;;5072031;28;20457;-68
2021/06/11 11:37:52;;;;;;;4.70;3.10;;;;;;;;;;5072212;28;20496;-69
2021/06/11 11:40:20;;;;;;;3.30;2.67;;;;;;;;;;5071912;28;20478;-68
2021/06/11 11:42:47;;;;;;;3.50;2.90;;;;;;;;;;5071756;28;20470;-69
2021/06/11 11:45:14;;;;;;;4.67;3.00;;;;;;;;;;5071746;28;20446;-69
2021/06/11 11:47:42;;;;;;;3.23;2.70;;;;;;;;;;5071803;28;20910;-69
2021/06/11 11:50:09;;;;;;;3.67;2.63;;;;;;;;;;5072120;28;20474;-69
2021/06/11 11:52:36;;;;;;;4.23;2.70;;;;;;;;;;5071774;28;20848;-69
2021/06/11 11:55:03;;;;;;;3.60;3.30;;;;;;;;;;5071483;28;20829;-68
2021/06/11 11:57:31;;;;;;;3.70;3.03;;;;;;;;;;5071347;28;20465;-69
2021/06/11 11:59:58;;;;;;;3.57;3.20;;;;;;;;;;5071819;28;20521;-69
2021/06/11 12:02:24;;;;;;;3.83;3.00;;;;;;;;;;5071794;28;20547;-66
2021/06/11 12:04:51;;;;;;;3.10;2.80;;;;;;;;;;5071700;28;20500;-69
2021/06/11 12:07:33;;;;;;;4.13;3.83;;;;;;;;;;5048423;28;20435;-68
2021/06/11 12:09:59;;;;;;;3.50;3.20;;;;;;;;;;5071917;28;20443;-69
2021/06/11 12:12:26;;;;;;;2.60;2.40;;;;;;;;;;5071999;28;20527;-68
2021/06/11 12:14:54;;;;;;;3.90;3.60;;;;;;;;;;5072131;28;20798;-67
2021/06/11 12:17:21;;;;;;;3.57;3.27;;;;;;;;;;5070851;28;20449;-67
2021/06/11 12:19:48;;;;;;;2.97;2.67;;;;;;;;;;5072220;28;20442;-69
2021/06/11 12:22:15;;;;;;;3.50;3.00;;;;;;;;;;5072459;28;20521;-69
2021/06/11 12:24:41;;;;;;;3.23;3.03;;;;;;;;;;5073508;28;20545;-68
2021/06/11 12:27:08;;;;;;;3.70;3.33;;;;;;;;;;5077755;28;20446;-68
2021/06/11 12:29:35;;;;;;;3.20;2.90;;;;;;;;;;5077596;28;20713;-69
2021/06/11 12:32:04;;;;;;;2.73;2.53;;;;;;;;;;5074091;28;20450;-68
2021/06/11 12:34:30;;;;;;;3.37;3.07;;;;;;;;;;5078375;28;20472;-68
2021/06/11 12:36:57;;;;;;;3.37;3.07;;;;;;;;;;5076125;28;20443;-69
2021/06/11 12:39:24;;;;;;;3.17;2.70;;;;;;;;;;5077639;28;20450;-68
2021/06/11 12:41:54;;;;;;;3.10;2.90;;;;;;;;;;5074002;28;20478;-69
2021/06/11 12:44:21;;;;;;;3.50;3.20;;;;;;;;;;5071786;28;20446;-69
2021/06/11 12:46:49;;;;;;;3.20;2.90;;;;;;;;;;5071354;28;20454;-67
2021/06/11 12:49:19;;;;;;;3.53;3.10;;;;;;;;;;5074409;28;20447;-69
2021/06/11 12:51:46;;;;;;;3.00;2.70;;;;;;;;;;5075983;28;20447;-69
2021/06/11 12:54:13;;;;;;;2.90;2.43;;;;;;;;;;5076622;28;20471;-69
2021/06/11 12:56:40;;;;;;;3.07;2.50;;;;;;;;;;5075260;28;20833;-69
2021/06/11 12:59:07;;;;;;;2.30;2.10;;;;;;;;;;5075935;28;20457;-69
2021/06/11 13:01:34;;;;;;;2.60;2.40;;;;;;;;;;5076217;28;20988;-69
2021/06/11 13:04:01;;;;;;;2.70;2.50;;;;;;;;;;5077084;28;20540;-68
2021/06/11 13:06:30;;;;;;;2.20;2.00;;;;;;;;;;5081025;28;20450;-69
2021/06/11 13:08:57;;;;;;;3.00;2.30;;;;;;;;;;5080914;28;20443;-68
2021/06/11 13:11:23;;;;;;;3.20;2.30;;;;;;;;;;5083616;28;20447;-69
2021/06/11 13:13:50;;;;;;;2.30;1.73;;;;;;;;;;5078944;28;20482;-67
2021/06/11 13:16:17;;;;;;;3.93;2.57;;;;;;;;;;5078277;28;20812;-69
2021/06/11 13:18:44;;;;;;;3.63;2.00;;;;;;;;;;5078449;28;20830;-69
2021/06/11 13:21:10;;;;;;;2.50;2.17;;;;;;;;;;5078362;28;21001;-68
2021/06/11 13:23:38;;;;;;;2.40;1.90;;;;;;;;;;5078244;28;20470;-69
2021/06/11 13:26:05;;;;;;;2.80;2.17;;;;;;;;;;5074746;28;20483;-65
2021/06/11 13:28:31;;;;;;;3.60;2.70;;;;;;;;;;5074773;28;20528;-69
2021/06/11 13:30:58;;;;;;;2.30;2.10;;;;;;;;;;5074327;28;20973;-69
2021/06/11 13:33:25;;;;;;;3.07;2.77;;;;;;;;;;5074789;28;20467;-68
2021/06/11 13:35:52;;;;;;;3.40;2.40;;;;;;;;;;5073762;28;20930;-69
2021/06/11 13:38:19;;;;;;;3.37;2.40;;;;;;;;;;5074383;28;20520;-69
2021/06/11 13:40:47;;;;;;;2.33;2.13;;;;;;;;;;5074109;28;21060;-68
2021/06/11 13:43:14;;;;;;;2.43;2.23;;;;;;;;;;5074320;28;20532;-69
2021/06/11 13:45:40;;;;;;;4.53;2.40;;;;;;;;;;5074129;28;20473;-66
2021/06/11 13:48:07;;;;;;;2.40;2.20;;;;;;;;;;5074783;28;20449;-64
2021/06/11 13:50:34;;;;;;;2.27;2.07;;;;;;;;;;5074395;28;20850;-66
2021/06/11 13:53:00;;;;;;;3.80;2.23;;;;;;;;;;5074323;28;20469;-66
2021/06/11 13:55:27;;;;;;;3.20;2.37;;;;;;;;;;5073291;28;20945;-64
2021/06/11 13:57:56;;;;;;;2.33;2.10;;;;;;;;;;5074123;28;20451;-66
2021/06/11 14:00:26;;;;;;;3.90;2.33;;;;;;;;;;5073515;28;20478;-64
2021/06/11 14:02:52;;;;;;;4.80;2.73;;;;;;;;;;5074315;28;20475;-64
2021/06/11 14:05:19;;;;;;;5.73;2.50;;;;;;;;;;5073485;28;20453;-64
2021/06/11 14:07:49;;;;;;;2.73;2.23;;;;;;;;;;5073690;28;20443;-64
2021/06/11 14:10:15;;;;;;;4.73;2.73;;;;;;;;;;5073994;28;20501;-64
2021/06/11 14:12:42;;;;;;;3.17;2.80;;;;;;;;;;5073280;28;21046;-64
2021/06/11 14:15:11;;;;;;;3.23;2.70;;;;;;;;;;5074154;28;20451;-64
2021/06/11 14:17:37;;;;;;;3.27;2.50;;;;;;;;;;5073555;28;20462;-65
2021/06/11 14:20:05;;;;;;;3.87;3.47;;;;;;;;;;5073761;28;20486;-64
2021/06/11 14:22:32;;;;;;;2.80;2.37;;;;;;;;;;5073712;28;20471;-64
2021/06/11 14:24:59;;;;;;;2.50;2.30;;;;;;;;;;5073755;28;20447;-64
2021/06/11 14:27:25;;;;;;;3.40;2.47;;;;;;;;;;5072638;28;20516;-65
2021/06/11 14:29:52;;;;;;;3.43;2.20;;;;;;;;;;5073856;28;20449;-63
2021/06/11 14:32:20;;;;;;;2.83;2.57;;;;;;;;;;5073849;28;20467;-64
2021/06/11 14:34:47;;;;;;;3.07;2.20;;;;;;;;;;5073653;28;20454;-63